Terminal Aerodrome Forecast
Issued by NWS Wilmington, OH

Current Version | Previous Version | Text Only | Print | Product List | Glossary Off
Versions: 1 2 3 4 5 6 7 8 9 10 11 12 13 14 15 16 17 18 19 20 21 22 23 24 25 26 27 28 29 30

077
FTUS41 KILN 170212 AAB
TAFDAY
TAF AMD
KDAY 170212Z 1702/1724 14008KT 4SM -SHRA BR OVC060
      TEMPO 1702/1704 1SM -SHRA OVC015
     FM170500 16010KT 2SM -SHRA BR OVC005
     FM171500 23014KT P6SM OVC012
     FM171800 25014G22KT P6SM OVC025=

USA.gov is the U.S. government's official web portal to all federal, state and local government web resources and services.